Est Velazquez, Puerto Rico
Current Conditions -  °F | °C
As of 5:50 PM on Tuesday 21 Oct 2014 (Local Time) from TJBQ Reporting Station
Thunderstorm Thunderstorm  
Wind Chill: 82°   Ceiling: 5000
Heat Index: 88°   Visibility: 10mi
Dew Point: 73°   Wind: 10mph
Humidity: 74%   Direction: 90°E
Pressure: 29.91"   Gusts: NA
Location:  18.4951°N, 67.0273°W
Report Text: TJBQ 212150Z 09009KT 10SM TS SCT040 BKN050 BKN080 28/23 A2991 RMK LTG OHD AND DSNT SE TS SE-SW-- RWY08 ATIS C
Loading
Personal Weather Stations






























Interactive Weather Map
Tropical Storm Tracking
New forecast layout! Learn more

10-Day Weather Forecast

Advertisements
Track Severe Weather on mobile